Event Stats: Mississippi (FPO)

Last Updated: 2022-09-26 18:31:50

Shows events in the Statmando database that have been held in Mississippi and that include an FPO Division, capped at the most recent 1000 events.
Name EventEndDate Tour City FieldSize AvgRating TotalPurse EventRounds Winner WinnerEventRating WinnerCashPerThrow WinnerPrize
Jason Laughlin Memorial Tournament presented by Dynamic Discs 2022-09-10 C Purvis 1 776.0000 0 2 PDGA #133812 776.0000 0.0000 0
4th Annual McCoy Memorial Sponsored by Dynamic Discs 2022-07-23 C Tupelo 1 821.0000 96 2 PDGA #65778 821.0000 0.3582 48
2022 Summer Sizzler 2022-06-25 C Columbus 1 845.5000 0 2 PDGA #65778 845.5000 0.0000 0
Fling With The King Sponsored By Dynamic Discs 2022-06-12 B Tupelo 1 830.0000 252 3 PDGA #65778 830.0000 0.3944 84
The 1010 Classic Presented by 1010 Discs 2022-03-26 B Southaven 2 825.2500 400 2 Chyenne Garner 825.5000 1.3245 200
2021 Big Rip Classic Presented by Discraft 2021-10-03 A Lumberton 4 884.9167 2,880 3 Chloe Alice 925.3333 3.2011 605
6th Annual Weapons of Grass Destruction 2021-09-19 A Tupelo 4 865.5000 2,115 3 Callie McMorran 913.3333 2.3177 445
The 6th Annual Autumn Glory Open Presented by 1010 Discs 2021-09-11 B Southaven 1 815.0000 240 2 PDGA #60423 815.0000 0.7895 120
The Central Classic Presented by 1010 Discs 2021-07-17 C Southaven 1 798.0000 120 2 PDGA #60423 798.0000 0.4167 60
5th Annual Weapons of Grass Destruction 2020-10-18 A Tupelo 3 871.6667 1,431 3 Kat Mertsch 880.0000 1.1115 299
2020 Big Rip Classic Presented by Discraft 2020-10-04 A Lumberton 6 849.0556 2,715 3 Lisa Fajkus 935.3333 2.2995 430
The 5th Annual Autumn Glory Open Presented by 1010 Discs 2020-09-12 B Southaven 1 839.5000 240 2 PDGA #60423 839.5000 0.8392 120
Pinebelt Punkout 2020-08-22 C Lumberton 2 868.7500 320 2 Esther Schultz 923.5000 1.4679 160
Tishomingo Spring Classic 2020-presented by Westside Discs 2020-03-15 B Tishomingo 4 868.2500 1,230 3 Callie McMorran 921.3333 1.4706 250
North Mississippi Freeze Out presented by MVP disc sports 2019-12-21 C Lake Cormorant 1 889.0000 116 2 PDGA #60423 889.0000 0.5043 58
4th Annual Weapons of Grass Destruction Sponsored by Dynamic Discs and Latitude 64 2019-10-20 B Tupelo 2 860.5000 520 2 Lindsay Fish 878.5000 1.6049 260
C-Town Throw Down 2019-10-12 C Columbus 1 855.5000 100 2 PDGA #91611 855.5000 0.4000 50
The 4th Annual Autumn Glory Open Presented by 1010 Discs 2019-09-14 B Southaven 1 795.0000 240 2 PDGA #77612 795.0000 0.8696 120
Southern Birdie Feast presented by 1010discs 2019-08-17 C Southaven 1 812.0000 116 2 PDGA #60423 812.0000 0.4754 58
2019 Summer Sizzler 2019-06-22 C Columbus 1 805.5000 90 2 PDGA #62647 805.5000 0.3409 45
Tishomingo Spring Classic-presented by Westside Discs 2019-03-24 B Tishomingo 4 865.9167 1,170 3 Callie McMorran 914.6667 1.4793 250
7th Annual Mississippi State Spring Showdown 2019-03-16 C Mississippi State 1 812.0000 110 2 PDGA #65778 812.0000 0.4661 55
Back Bay Battle 7 presented by Latitude 64 2019-02-02 C Biloxi 3 857.0000 440 2 Lindsay Fish 881.0000 0.9787 138
Chautauqua Park Open 2018-11-10 B Crystal Springs 1 860.5000 230 2 Lindsay Fish 860.5000 0.7931 115
2018 Big Rip Classic Presented by Discraft 2018-09-29 B Lumberton 3 845.6667 440 2 Lindsay Fish 872.0000 1.1066 135
Rez Dawgs Open 2018-07-28 C Jackson 1 866.5000 150 2 Brandie Myers 866.5000 0.5952 75
2nd Annual Patriot Open presented by Prodigy Disc 2018-07-21 B hornlake 2 823.0000 410 2 PDGA #60423 857.0000 1.5299 205
The Weapons Of Grass Destruction 2018-07-01 B Tupelo 1 882.6667 645 3 Lindsay Fish 882.6667 0.9862 215
Tomato Toss 9 2018-06-30 C Crystal Springs 2 871.5000 250 2 Brandie Myers 919.0000 1.1905 125
Tishomingo Spring Classic Sponsored by Westside Discs 2018-04-08 B Tishomingo 1 796.6667 285 3 PDGA #105253 796.6667 0.4545 95
Desoto County Open 2018 2018-03-31 C Hornlake 1 856.0000 80 2 PDGA #60423 856.0000 0.3125 40
18th Annual Groundhog Grappler 2018-02-03 C Jackson 2 860.0000 200 2 Brandie Myers 911.5000 0.7937 100
Back Bay Battle 6 presented by Latitude 64 2018-01-27 C Biloxi 1 880.5000 120 2 Brandie Myers 880.5000 0.3974 60
Chautauqua Park Open 2017-10-21 C Crystal Springs 1 884.0000 110 2 Brandie Myers 884.0000 0.4867 55
Weapons of Grass Destruction Finale 2017-10-01 B Tupelo 1 857.5000 310 2 PDGA #62647 857.5000 1.0065 155
8th Annual Rose Hill Rumble 2017-08-19 C Canton 1 867.5000 90 2 Brandie Myers 867.5000 0.3629 45
2017 Reservoir Dawgs Open 2017-07-29 C Brandon 1 879.5000 200 2 Brandie Myers 879.5000 0.7692 100
Weapons of Grass Destruction Cossar Stop 2017-07-15 C Oakland 1 852.5000 90 2 PDGA #62647 852.5000 0.3982 45
Southern Nationals Pro Championship (USDGC Qualifier) 2017-05-28 B Tupelo 3 872.3333 1,365 3 Brandie Myers 922.6667 2.1875 455
1st Annual Canton Classic 2017-04-22 C Canton 1 850.0000 120 2 Brandie Myers 850.0000 0.4615 60
5th Annual Mississippi State Spring Showdown 2017-03-04 C Mississippi State 1 904.5000 120 2 PDGA #36816 904.5000 0.5357 60
Back Bay Battle 5 Presented by Latitude 64 2017-02-04 C Biloxi 2 842.7500 300 2 Brandie Myers 852.0000 0.9868 150
17th Annual Groundhog Grappler 2017-01-28 C Jackson 1 927.5000 200 2 Brandie Myers 927.5000 0.8475 100
Chautauqua Park Open 2016-11-12 C Crystal Springs 1 853.5000 160 2 Brandie Myers 853.5000 0.5970 80
Pine Belt Championship 2016-10-16 B Hattiesburg 1 814.6667 0 3 PDGA #67322 814.6667 0.0000 0
Autumn Glory Open presented by 1010 Discs 2016-10-15 B Southaven 1 891.0000 160 2 PDGA #36816 891.0000 0.6838 80
SpinCrazy's Big Rip Classic 2016-09-25 B Hattiesburg 2 869.1667 690 3 PDGA #36816 882.6667 1.2299 230
Rumble in the Jungle 2016-09-11 C Holly Springs 1 907.6667 240 3 PDGA #36816 907.6667 0.4545 80
2016 Reservoir Dawgs Open 2016-07-30 C Jackson 1 893.5000 200 2 Brandie Myers 893.5000 0.7463 100
Weapons Of Grass Destruction 2016-06-26 C Pontotoc 2 808.0000 552 2 PDGA #62647 848.0000 0.9262 138
Tomato Toss 7 2016-06-25 C Crystal Springs 1 840.0000 100 2 Brandie Myers 840.0000 0.3731 50
Fling with the King 2016-06-04 B Tupelo 1 762.0000 180 2 PDGA #66343 762.0000 0.6294 90
Kinetic Open Series #4 2016-05-28 C Holly Springs 1 861.5000 110 2 PDGA #36816 861.5000 0.4365 55
Weapons of Grass Destruction New Albany Stop Sponsored by Dynamic Disc 2016-05-14 C New Albany 2 851.0000 150 2 PDGA #36816 881.0000 0.6303 75
2016 Columbus Classic 2016-04-23 C Columbus 1 844.0000 140 2 PDGA #62647 844.0000 0.5600 70
4th Annual Mississippi State Spring Showdown 2016-03-26 C Starkville 1 851.5000 130 2 PDGA #62647 851.5000 0.5702 65
16th Annual Groundhog Grappler 2016-01-30 C Jackson 1 888.5000 90 2 Brandie Myers 888.5000 0.3462 45
Pine Belt Tour Championship presented by Dynamic Discs 2015-11-01 B Hattiesburg 1 875.3333 0 3 Brandie Myers 875.3333 0.0000 0
The Mango Classic 2015-10-18 A Jackson 4 856.5833 5,100 3 Catrina Allen 950.0000 5.2632 1,000
Spin Crazy Haze 2015-09-26 C Hattiesburg 1 854.0000 0 2 Brandie Myers 854.0000 0.0000 0
Rumble in the Jungle 2015-09-12 C Holly Springs 1 827.0000 160 2 PDGA #53699 827.0000 0.5797 80
Southern Nationals Pro Championship 2015-05-24 B Tupelo 2 842.0000 1,095 3 PDGA #36816 897.0000 1.6977 365
Back Bay Battle 3 2015-02-07 C Biloxi 3 870.5000 0 2 Brandie Myers 891.0000 0.0000 0
Groundhog Grappler 2015-01-31 C Brandon 1 841.0000 130 2 PDGA #53699 841.0000 0.4643 65
Possum Town Open 2014-09-21 B Columbus 1 791.3333 240 3 PDGA #62647 791.3333 0.3922 80
2014 Midsouth Open 2014-07-20 B Tupelo 1 828.3333 0 3 PDGA #53699 828.3333 0.0000 0
14th Annual Groundhog Grappler 2014-01-25 C Jackson 1 876.5000 0 2 PDGA #53699 876.5000 0.0000 0
Southern Nationals Pro Championship 2013-09-01 B Columbus 6 877.7500 5,040 4 Paige Pierce 948.0000 2.3077 600
Elvis Fling with the King 2012-06-03 C Tupelo 1 821.5000 150 2 PDGA #53699 821.5000 0.3659 75
Lake Lowndes Summer Sizzler 2011-06-12 B Columbus 1 890.0000 144 2 PDGA #3553 890.0000 0.6102 72
Fling with the King 2010-06-06 C Tupelo 1 887.6667 150 3 PDGA #36816 887.6667 0.2183 50
The Fox Hunt 2006-08-19 B Hattiesburg 2 803.2500 240 2 PDGA #26798 830.5000 0.7246 100
McDonald's Southern Nationals Pro Championship 2005-09-04 B Holly Springs 9 886.3333 6,240 4 Carrie Berlogar 969.7500 3.1116 725
Southern National Championships 2004-09-05 B Poplarville/Hillsdale 6 842.6250 3,884 4 PDGA #13309 872.7500 2.1484 550
1st Annual Mississippi State DG Championship 1996-06-29 C Hattiesburg 4 180 2 PDGA #7581 0.4762 60